Calais, Maine
Current Conditions -  °F | °C
As of 1:00 PM on Monday 20 Oct 2014 (Local Time) from CYFC Reporting Station
Broken Clouds Broken Clouds  
Wind Chill: 37°   Ceiling: 3900
Heat Index: 45°   Visibility: 9mi
Dew Point: 28°   Wind: 17mph
Humidity: 53%   Direction: 250°WSW
Pressure: 29.83"   Gusts: 24mph
Location:  45.18°N, 67.28°W
Report Text: CYFC 201700Z AUTO 25015G21KT 9SM BKN039 07/M02 A2983 RMK SLP102
Loading
Personal Weather Stations






























Interactive Weather Map
Tropical Storm Tracking
New forecast layout! Learn more

10-Day Weather Forecast

Advertisements
Track Severe Weather on mobile